Aviation Digital Data Service (ADDS)

Output produced by METARs form (1903 UTC 24 April 2017)
found at http://aviationweather.gov/adds/metars/
 
KPBG 241720Z 2418/2518 02010KT P6SM SKC 
     FM250200 35005KT P6SM SKC 
     FM250800 VRB03KT P6SM FEW045 SCT200 
     FM251300 15008KT P6SM VCSH SCT045 BKN090 
     FM251600 15012KT P6SM VCSH OVC050